Terminal Aerodrome Forecast
Issued by NWS North Platte, NE

Home | Current Version | Previous Version | Text Only | Print | Product List | Glossary On
Versions: 1 2 3 4 5 6 7 8 9 10 11 12 13 14 15 16
888
FTUS43 KLBF 270520
TAFVTN
TAF
KVTN 270520Z 2706/2806 36007KT 5SM -SHRA SCT020 OVC050
     FM271200 01007KT 6SM -SHRA OVC015
     FM271500 36007KT P6SM VCSH OVC015
     FM271800 35010KT P6SM SCT015 BKN040
     FM280000 32008KT P6SM BKN250=

USA.gov is the U.S. government's official web portal to all federal, state and local government web resources and services.